createdAt,value
2024-02-29T00:00:02.408Z,8.47
2024-02-29T00:01:04.543Z,8.44
2024-02-29T00:02:06.303Z,8.43
2024-02-29T00:03:10.423Z,8.43
2024-02-29T00:04:12.330Z,8.45
2024-02-29T00:05:14.342Z,8.47
2024-02-29T00:06:16.120Z,8.49
2024-02-29T00:07:17.868Z,8.48
2024-02-29T00:08:19.690Z,8.46
2024-02-29T00:09:21.449Z,8.47
2024-02-29T00:10:23.718Z,8.49
2024-02-29T00:11:25.533Z,8.49
2024-02-29T00:12:27.320Z,8.48
2024-02-29T00:13:29.109Z,8.47
2024-02-29T00:14:30.996Z,8.50
2024-02-29T00:15:32.822Z,8.49
2024-02-29T00:16:34.700Z,8.51
2024-02-29T00:17:36.489Z,8.50
2024-02-29T00:18:38.361Z,8.49
2024-02-29T00:19:40.304Z,8.51
2024-02-29T00:20:42.989Z,8.54
2024-02-29T00:21:45.597Z,8.56
2024-02-29T00:22:48.008Z,8.56
2024-02-29T00:23:49.753Z,8.57
2024-02-29T00:24:51.659Z,8.56
2024-02-29T00:25:53.450Z,8.49
2024-02-29T00:26:55.205Z,8.48
2024-02-29T00:27:58.051Z,8.48
2024-02-29T00:28:59.929Z,8.50
2024-02-29T00:30:01.756Z,8.51
2024-02-29T00:31:05.153Z,8.52
2024-02-29T00:32:09.427Z,8.54
2024-02-29T00:33:11.206Z,8.55
2024-02-29T00:34:13.810Z,8.56
2024-02-29T00:35:15.661Z,8.55
2024-02-29T00:36:17.508Z,8.56
2024-02-29T00:37:19.290Z,8.55
2024-02-29T00:38:21.067Z,8.54
2024-02-29T00:39:23.004Z,8.54
2024-02-29T00:40:24.940Z,8.55
2024-02-29T00:41:27.384Z,8.56
2024-02-29T00:42:29.218Z,8.58
2024-02-29T00:43:31.079Z,8.60
2024-02-29T00:44:32.891Z,8.54
2024-02-29T00:45:34.774Z,8.55
2024-02-29T00:46:39.489Z,8.57
2024-02-29T00:47:41.264Z,8.60
2024-02-29T00:48:43.047Z,8.59
2024-02-29T00:49:44.887Z,8.60
2024-02-29T00:50:46.722Z,8.55
2024-02-29T00:51:48.658Z,8.56
2024-02-29T00:52:50.507Z,8.58
2024-02-29T00:53:52.380Z,8.57
2024-02-29T00:54:54.493Z,8.55
2024-02-29T00:55:56.499Z,8.56
2024-02-29T00:56:58.349Z,8.58
2024-02-29T00:58:00.191Z,8.58
2024-02-29T00:59:01.943Z,8.59
2024-02-29T01:00:03.949Z,8.61
2024-02-29T01:01:05.912Z,8.61
2024-02-29T01:02:07.869Z,8.63
2024-02-29T01:03:10.127Z,8.63
2024-02-29T01:04:11.967Z,8.64
2024-02-29T01:05:13.789Z,8.66
2024-02-29T01:06:17.722Z,8.65
2024-02-29T01:07:20.554Z,8.63
2024-02-29T01:08:22.324Z,8.61
2024-02-29T01:09:28.654Z,8.60
2024-02-29T01:10:30.645Z,8.55
2024-02-29T01:11:33.626Z,8.53
2024-02-29T01:12:40.872Z,8.55
2024-02-29T01:13:42.930Z,8.57
2024-02-29T01:14:44.857Z,8.57
2024-02-29T01:15:47.586Z,8.57
2024-02-29T01:16:49.971Z,8.58
2024-02-29T01:17:52.395Z,8.60
2024-02-29T01:18:54.206Z,8.61
2024-02-29T01:19:56.060Z,8.62
2024-02-29T01:20:57.817Z,8.63
2024-02-29T01:21:59.649Z,8.65
2024-02-29T01:23:01.660Z,8.65
2024-02-29T01:24:03.405Z,8.66
2024-02-29T01:25:05.720Z,8.68
2024-02-29T01:26:08.393Z,8.70
2024-02-29T01:27:10.081Z,8.70
2024-02-29T01:28:11.967Z,8.71
2024-02-29T01:29:13.849Z,8.70
2024-02-29T01:30:15.712Z,8.68
2024-02-29T01:31:17.463Z,8.65
2024-02-29T01:32:26.324Z,8.64
2024-02-29T01:33:30.086Z,8.64
2024-02-29T01:34:32.207Z,8.67
2024-02-29T01:35:34.045Z,8.68
2024-02-29T01:36:35.921Z,8.66
2024-02-29T01:37:37.689Z,8.61
2024-02-29T01:38:39.441Z,8.53
2024-02-29T01:39:43.069Z,8.49
2024-02-29T01:40:47.897Z,8.49
2024-02-29T01:41:50.209Z,8.49
2024-02-29T01:42:52.000Z,8.47
2024-02-29T01:43:55.090Z,8.41
2024-02-29T01:44:57.603Z,8.38
2024-02-29T01:46:12.069Z,8.37
2024-02-29T01:47:14.641Z,8.40
2024-02-29T01:48:16.557Z,8.41
2024-02-29T01:49:18.780Z,8.44
2024-02-29T01:50:20.830Z,8.46
2024-02-29T01:51:23.029Z,8.48
2024-02-29T01:52:26.594Z,8.48
2024-02-29T01:53:29.114Z,8.48
2024-02-29T01:54:31.401Z,8.48
2024-02-29T01:55:33.260Z,8.47
2024-02-29T01:56:34.995Z,8.47
2024-02-29T01:57:37.111Z,8.47
2024-02-29T01:58:40.179Z,8.47
2024-02-29T01:59:42.885Z,8.46
2024-02-29T02:00:45.287Z,8.46
2024-02-29T02:01:47.727Z,8.46
2024-02-29T02:02:49.819Z,8.45
2024-02-29T02:03:51.689Z,8.43
2024-02-29T02:04:53.629Z,8.44
2024-02-29T02:05:55.360Z,8.43
2024-02-29T02:06:58.901Z,8.44
2024-02-29T02:08:00.665Z,8.45
2024-02-29T02:09:03.150Z,8.48
2024-02-29T02:10:07.501Z,8.50
2024-02-29T02:11:09.594Z,8.47
2024-02-29T02:12:14.253Z,8.47
2024-02-29T02:13:16.098Z,8.45
2024-02-29T02:14:18.054Z,8.43
2024-02-29T02:15:19.861Z,8.42
2024-02-29T02:16:21.781Z,8.39
2024-02-29T02:17:23.607Z,8.34
2024-02-29T02:18:25.339Z,8.33
2024-02-29T02:19:27.147Z,8.33
2024-02-29T02:20:28.912Z,8.34
2024-02-29T02:21:31.601Z,8.38
2024-02-29T02:22:34.081Z,8.40
2024-02-29T02:23:35.827Z,8.40
2024-02-29T02:24:37.846Z,8.40
2024-02-29T02:25:39.634Z,8.41
2024-02-29T02:26:41.404Z,8.43
2024-02-29T02:27:43.314Z,8.45
2024-02-29T02:28:45.054Z,8.46
2024-02-29T02:29:46.755Z,8.46
2024-02-29T02:30:48.574Z,8.48
2024-02-29T02:31:50.303Z,8.46
2024-02-29T02:32:52.128Z,8.36
2024-02-29T02:33:53.810Z,8.29
2024-02-29T02:34:55.544Z,8.25
2024-02-29T02:35:57.390Z,8.24
2024-02-29T02:36:59.100Z,8.24
2024-02-29T02:38:04.417Z,8.25
2024-02-29T02:39:06.213Z,8.25
2024-02-29T02:40:08.370Z,8.27
2024-02-29T02:41:10.283Z,8.29
2024-02-29T02:42:12.022Z,8.32
2024-02-29T02:43:13.921Z,8.31
2024-02-29T02:44:15.684Z,8.28
2024-02-29T02:45:17.480Z,8.29
2024-02-29T02:46:19.501Z,8.29
2024-02-29T02:47:21.247Z,8.28
2024-02-29T02:48:22.989Z,8.27
2024-02-29T02:49:24.710Z,8.25
2024-02-29T02:50:27.125Z,8.25
2024-02-29T02:51:29.066Z,8.25
2024-02-29T02:52:31.036Z,8.27
2024-02-29T02:53:32.843Z,8.26
2024-02-29T02:54:35.128Z,8.29
2024-02-29T02:55:37.075Z,8.27
2024-02-29T02:56:38.877Z,8.24
2024-02-29T02:57:40.696Z,8.15
2024-02-29T02:58:42.527Z,8.11
2024-02-29T02:59:44.225Z,8.13
2024-02-29T03:00:46.148Z,8.16
2024-02-29T03:01:50.748Z,8.16
2024-02-29T03:02:53.051Z,8.13
2024-02-29T03:03:54.904Z,8.13
2024-02-29T03:04:56.982Z,8.13
2024-02-29T03:05:58.832Z,8.17
2024-02-29T03:07:00.698Z,8.20
2024-02-29T03:08:04.801Z,8.23
2024-02-29T03:09:09.188Z,8.19
2024-02-29T03:10:11.219Z,8.17
2024-02-29T03:11:13.188Z,8.09
2024-02-29T03:12:15.651Z,8.00
2024-02-29T03:13:17.474Z,8.01
2024-02-29T03:14:19.378Z,8.04
2024-02-29T03:15:21.930Z,8.07
2024-02-29T03:16:24.956Z,8.07
2024-02-29T03:17:27.719Z,8.08
2024-02-29T03:18:29.668Z,8.10
2024-02-29T03:19:31.547Z,8.13
2024-02-29T03:20:33.299Z,8.16
2024-02-29T03:21:35.182Z,8.18
2024-02-29T03:22:36.938Z,8.21
2024-02-29T03:23:38.718Z,8.21
2024-02-29T03:24:43.466Z,8.21
2024-02-29T03:25:45.363Z,8.20
2024-02-29T03:26:48.276Z,8.18
2024-02-29T03:27:52.135Z,8.11
2024-02-29T03:28:54.034Z,8.01
2024-02-29T03:29:55.798Z,7.96
2024-02-29T03:30:58.324Z,7.91
2024-02-29T03:32:00.149Z,7.89
2024-02-29T03:33:01.962Z,7.91
2024-02-29T03:34:04.170Z,7.93
2024-02-29T03:35:07.258Z,7.96
2024-02-29T03:36:09.746Z,7.97
2024-02-29T03:37:11.767Z,7.99
2024-02-29T03:38:13.630Z,8.03
2024-02-29T03:39:15.925Z,8.05
2024-02-29T03:40:17.922Z,8.07
2024-02-29T03:41:19.781Z,8.07
2024-02-29T03:42:21.530Z,8.07
2024-02-29T03:43:23.262Z,8.06
2024-02-29T03:44:25.179Z,8.07
2024-02-29T03:45:27.038Z,8.06
2024-02-29T03:46:29.466Z,8.06
2024-02-29T03:47:31.236Z,8.09
2024-02-29T03:48:33.520Z,8.09
2024-02-29T03:49:35.427Z,8.10
2024-02-29T03:50:37.236Z,8.12
2024-02-29T03:51:39.849Z,8.13
2024-02-29T03:52:41.997Z,8.15
2024-02-29T03:53:44.130Z,8.17
2024-02-29T03:54:46.801Z,8.18
2024-02-29T03:55:49.604Z,8.21
2024-02-29T03:56:51.382Z,8.24
2024-02-29T03:57:53.335Z,8.25
2024-02-29T03:58:55.078Z,8.27
2024-02-29T03:59:56.793Z,8.27
2024-02-29T04:00:58.923Z,8.30
2024-02-29T04:02:01.694Z,8.32
2024-02-29T04:03:03.647Z,8.33
2024-02-29T04:04:05.583Z,8.34
2024-02-29T04:05:08.507Z,8.34
2024-02-29T04:06:10.338Z,8.35
2024-02-29T04:07:12.237Z,8.37
2024-02-29T04:08:14.041Z,8.37
2024-02-29T04:09:16.622Z,8.38
2024-02-29T04:10:18.505Z,8.38
2024-02-29T04:11:20.484Z,8.37
2024-02-29T04:12:22.281Z,8.37
2024-02-29T04:13:24.824Z,8.28
2024-02-29T04:14:26.610Z,8.20
2024-02-29T04:15:29.049Z,8.17
2024-02-29T04:16:31.542Z,8.15
2024-02-29T04:17:33.894Z,8.16
2024-02-29T04:18:35.841Z,8.14
2024-02-29T04:19:39.386Z,8.09
2024-02-29T04:20:41.186Z,8.07
2024-02-29T04:21:47.211Z,8.08
2024-02-29T04:22:51.988Z,8.11
2024-02-29T04:23:53.661Z,8.15
2024-02-29T04:24:55.402Z,8.17
2024-02-29T04:25:57.334Z,8.12
2024-02-29T04:26:59.241Z,8.04
2024-02-29T04:28:01.156Z,7.93
2024-02-29T04:29:03.435Z,7.92
2024-02-29T04:30:07.115Z,7.94
2024-02-29T04:31:10.287Z,7.98
2024-02-29T04:32:12.161Z,8.03
2024-02-29T04:33:13.942Z,8.06
2024-02-29T04:34:15.913Z,8.11
2024-02-29T04:35:18.112Z,8.14
2024-02-29T04:36:19.924Z,8.17
2024-02-29T04:37:21.742Z,8.20
2024-02-29T04:38:24.013Z,8.22
2024-02-29T04:39:25.896Z,8.23
2024-02-29T04:40:30.840Z,8.22
2024-02-29T04:41:32.677Z,8.18
2024-02-29T04:42:34.785Z,8.18
2024-02-29T04:43:36.707Z,8.20
2024-02-29T04:44:39.122Z,8.23
2024-02-29T04:45:40.976Z,8.23
2024-02-29T04:46:42.990Z,8.20
2024-02-29T04:47:45.154Z,8.17
2024-02-29T04:48:47.086Z,8.17
2024-02-29T04:49:48.965Z,8.17
2024-02-29T04:50:50.751Z,8.18
2024-02-29T04:51:53.500Z,8.21
2024-02-29T04:52:55.377Z,8.24
2024-02-29T04:53:57.296Z,8.25
2024-02-29T04:54:59.105Z,8.26
2024-02-29T04:56:01.922Z,8.25
2024-02-29T04:57:03.703Z,8.27
2024-02-29T04:58:06.117Z,8.25
2024-02-29T04:59:08.811Z,8.26
2024-02-29T05:00:11.721Z,8.23
2024-02-29T05:01:14.779Z,8.25
2024-02-29T05:02:17.516Z,8.23
2024-02-29T05:03:19.345Z,8.24
2024-02-29T05:04:21.150Z,8.25
2024-02-29T05:05:22.969Z,8.25
2024-02-29T05:06:24.769Z,8.28
2024-02-29T05:07:26.506Z,8.27
2024-02-29T05:08:28.372Z,8.27
2024-02-29T05:09:30.093Z,8.21
2024-02-29T05:10:31.992Z,8.13
2024-02-29T05:11:36.187Z,8.08
2024-02-29T05:12:39.356Z,8.08
2024-02-29T05:13:41.116Z,8.08
2024-02-29T05:14:42.849Z,8.10
2024-02-29T05:15:44.832Z,8.12
2024-02-29T05:16:46.721Z,8.16
2024-02-29T05:17:49.500Z,8.18
2024-02-29T05:18:53.086Z,8.13
2024-02-29T05:19:55.749Z,8.01
2024-02-29T05:20:57.516Z,7.96
2024-02-29T05:21:59.378Z,7.93
2024-02-29T05:23:01.115Z,7.92
2024-02-29T05:24:03.007Z,7.91
2024-02-29T05:25:05.003Z,7.86
2024-02-29T05:26:06.897Z,7.82
2024-02-29T05:27:08.939Z,7.83
2024-02-29T05:28:10.859Z,7.84
2024-02-29T05:29:12.701Z,7.73
2024-02-29T05:30:16.033Z,7.60
2024-02-29T05:31:17.848Z,7.55
2024-02-29T05:32:19.746Z,7.50
2024-02-29T05:33:21.646Z,7.54
2024-02-29T05:34:25.451Z,7.49
2024-02-29T05:35:27.629Z,7.45
2024-02-29T05:36:29.581Z,7.46
2024-02-29T05:37:32.182Z,7.49
2024-02-29T05:38:34.092Z,7.54
2024-02-29T05:39:36.462Z,7.59
2024-02-29T05:40:38.453Z,7.65
2024-02-29T05:41:40.685Z,7.66
2024-02-29T05:42:42.458Z,7.67
2024-02-29T05:43:45.092Z,7.69
2024-02-29T05:44:47.534Z,7.69
2024-02-29T05:45:49.279Z,7.72
2024-02-29T05:46:51.841Z,7.72
2024-02-29T05:47:53.753Z,7.72
2024-02-29T05:48:55.653Z,7.68
2024-02-29T05:49:57.573Z,7.68
2024-02-29T05:50:59.410Z,7.67
2024-02-29T05:52:01.414Z,7.66
2024-02-29T05:53:03.231Z,7.62
2024-02-29T05:54:05.053Z,7.59
2024-02-29T05:55:07.773Z,7.58
2024-02-29T05:56:09.593Z,7.59
2024-02-29T05:57:11.459Z,7.60
2024-02-29T05:58:13.617Z,7.60
2024-02-29T05:59:15.843Z,7.61
2024-02-29T06:00:19.024Z,7.60
2024-02-29T06:01:21.039Z,7.56
2024-02-29T06:02:22.960Z,7.53
2024-02-29T06:03:24.850Z,7.52
2024-02-29T06:04:26.878Z,7.54
2024-02-29T06:05:29.744Z,7.53
2024-02-29T06:06:31.437Z,7.56
2024-02-29T06:07:33.291Z,7.60
2024-02-29T06:08:35.080Z,7.63
2024-02-29T06:09:37.335Z,7.66
2024-02-29T06:10:39.484Z,7.70
2024-02-29T06:11:41.471Z,7.73
2024-02-29T06:12:43.287Z,7.75
2024-02-29T06:13:45.364Z,7.75
2024-02-29T06:14:48.894Z,7.76
2024-02-29T06:15:51.556Z,7.77
2024-02-29T06:16:53.646Z,7.77
2024-02-29T06:17:57.053Z,7.74
2024-02-29T06:18:58.964Z,7.69
2024-02-29T06:20:00.801Z,7.68
2024-02-29T06:21:04.401Z,7.67
2024-02-29T06:22:09.620Z,7.60
2024-02-29T06:23:11.377Z,7.58
2024-02-29T06:24:19.851Z,7.60
2024-02-29T06:25:22.202Z,7.61
2024-02-29T06:26:25.589Z,7.64
2024-02-29T06:27:28.281Z,7.66
2024-02-29T06:28:30.095Z,7.68
2024-02-29T06:29:31.968Z,7.69
2024-02-29T06:30:33.987Z,7.70
2024-02-29T06:31:35.910Z,7.74
2024-02-29T06:32:37.763Z,7.74
2024-02-29T06:33:39.651Z,7.73
2024-02-29T06:34:42.284Z,7.76
2024-02-29T06:35:44.150Z,7.78
2024-02-29T06:36:46.318Z,7.80
2024-02-29T06:37:48.411Z,7.81
2024-02-29T06:38:50.398Z,7.80
2024-02-29T06:39:52.267Z,7.78
2024-02-29T06:40:54.057Z,7.79
2024-02-29T06:41:55.862Z,7.77
2024-02-29T06:42:57.704Z,7.71
2024-02-29T06:43:59.440Z,7.69
2024-02-29T06:45:01.210Z,7.67
2024-02-29T06:46:06.703Z,7.61
2024-02-29T06:47:08.833Z,7.63
2024-02-29T06:48:10.777Z,7.63
2024-02-29T06:49:13.078Z,7.69
2024-02-29T06:50:15.010Z,7.72
2024-02-29T06:51:17.053Z,7.69
2024-02-29T06:52:18.827Z,7.63
2024-02-29T06:53:20.530Z,7.62
2024-02-29T06:54:22.393Z,7.64
2024-02-29T06:55:24.241Z,7.69
2024-02-29T06:56:26.028Z,7.70
2024-02-29T06:57:27.894Z,7.75
2024-02-29T06:58:29.702Z,7.76
2024-02-29T06:59:31.556Z,7.77
2024-02-29T07:00:33.976Z,7.79
2024-02-29T07:01:36.717Z,7.81
2024-02-29T07:02:38.697Z,7.77
2024-02-29T07:03:40.965Z,7.70
2024-02-29T07:04:44.203Z,7.65
2024-02-29T07:05:46.894Z,7.67
2024-02-29T07:06:48.704Z,7.70
2024-02-29T07:07:54.230Z,7.70
2024-02-29T07:08:56.120Z,7.71
2024-02-29T07:09:58.072Z,7.75
2024-02-29T07:11:02.394Z,7.73
2024-02-29T07:12:04.990Z,7.73
2024-02-29T07:13:06.802Z,7.78
2024-02-29T07:14:08.579Z,7.81
2024-02-29T07:15:11.205Z,7.86
2024-02-29T07:16:13.130Z,7.86
2024-02-29T07:17:14.866Z,7.87
2024-02-29T07:18:16.817Z,7.87
2024-02-29T07:19:18.672Z,7.80
2024-02-29T07:20:20.682Z,7.74
2024-02-29T07:21:22.492Z,7.73
2024-02-29T07:22:25.083Z,7.75
2024-02-29T07:23:26.936Z,7.78
2024-02-29T07:24:29.022Z,7.78
2024-02-29T07:25:30.869Z,7.81
2024-02-29T07:26:33.093Z,7.81
2024-02-29T07:27:37.542Z,7.79
2024-02-29T07:28:39.367Z,7.78
2024-02-29T07:29:41.108Z,7.79
2024-02-29T07:30:42.905Z,7.77
2024-02-29T07:31:44.737Z,7.77
2024-02-29T07:32:46.823Z,7.78
2024-02-29T07:33:48.742Z,7.79
2024-02-29T07:34:50.493Z,7.80
2024-02-29T07:35:52.575Z,7.86
2024-02-29T07:36:54.481Z,7.92
2024-02-29T07:37:56.261Z,7.96
2024-02-29T07:38:58.028Z,7.94
2024-02-29T07:39:59.898Z,7.91
2024-02-29T07:41:01.680Z,7.92
2024-02-29T07:42:04.433Z,7.95
2024-02-29T07:43:06.999Z,7.96
2024-02-29T07:44:08.795Z,8.01
2024-02-29T07:45:10.790Z,8.06
2024-02-29T07:46:12.545Z,8.01
2024-02-29T07:47:14.652Z,8.06
2024-02-29T07:48:16.576Z,8.09
2024-02-29T07:49:19.464Z,8.12
2024-02-29T07:50:22.137Z,8.14
2024-02-29T07:51:23.978Z,8.14
2024-02-29T07:52:25.780Z,8.11
2024-02-29T07:53:28.129Z,8.09
2024-02-29T07:54:29.880Z,8.15
2024-02-29T07:55:31.765Z,8.18
2024-02-29T07:56:33.499Z,8.18
2024-02-29T07:57:36.412Z,8.16
2024-02-29T07:58:38.334Z,8.18
2024-02-29T07:59:40.079Z,8.23
2024-02-29T08:00:41.974Z,8.25
2024-02-29T08:01:43.923Z,8.27
2024-02-29T08:02:47.750Z,8.30
2024-02-29T08:03:49.905Z,8.28
2024-02-29T08:04:51.648Z,8.23
2024-02-29T08:05:53.446Z,8.23
2024-02-29T08:06:55.573Z,8.27
2024-02-29T08:07:58.172Z,8.32
2024-02-29T08:09:00.568Z,8.30
2024-02-29T08:10:02.949Z,8.31
2024-02-29T08:11:06.517Z,8.29
2024-02-29T08:12:08.327Z,8.34
2024-02-29T08:13:10.221Z,8.33
2024-02-29T08:14:12.086Z,8.33
2024-02-29T08:15:14.774Z,8.29
2024-02-29T08:16:16.704Z,8.23
2024-02-29T08:17:18.481Z,8.28
2024-02-29T08:18:20.339Z,8.35
2024-02-29T08:19:22.842Z,8.32
2024-02-29T08:20:26.816Z,8.33
2024-02-29T08:21:28.658Z,8.35
2024-02-29T08:22:30.606Z,8.36
2024-02-29T08:23:32.535Z,8.32
2024-02-29T08:24:34.469Z,8.29
2024-02-29T08:25:36.305Z,8.32
2024-02-29T08:26:38.319Z,8.31
2024-02-29T08:27:40.052Z,8.35
2024-02-29T08:28:43.849Z,8.36
2024-02-29T08:29:45.657Z,8.36
2024-02-29T08:30:47.557Z,8.35
2024-02-29T08:31:49.550Z,8.36
2024-02-29T08:32:51.461Z,8.43
2024-02-29T08:33:53.305Z,8.47
2024-02-29T08:34:58.247Z,8.51
2024-02-29T08:36:00.506Z,8.56
2024-02-29T08:37:03.821Z,8.65
2024-02-29T08:38:05.668Z,8.76
2024-02-29T08:39:07.439Z,8.86
2024-02-29T08:40:09.429Z,8.98
2024-02-29T08:41:11.238Z,9.04
2024-02-29T08:42:13.007Z,9.07
2024-02-29T08:43:15.025Z,9.12
2024-02-29T08:44:19.493Z,9.16
2024-02-29T08:45:23.044Z,9.14
2024-02-29T08:46:24.967Z,9.20
2024-02-29T08:47:26.898Z,9.32
2024-02-29T08:48:28.727Z,9.40
2024-02-29T08:49:30.654Z,9.48
2024-02-29T08:50:32.515Z,9.46
2024-02-29T08:51:34.476Z,9.43
2024-02-29T08:52:36.251Z,9.46
2024-02-29T08:53:38.008Z,9.44
2024-02-29T08:54:39.725Z,9.35
2024-02-29T08:55:41.575Z,9.37
2024-02-29T08:56:43.454Z,9.43
2024-02-29T08:57:45.744Z,9.50
2024-02-29T08:58:47.590Z,9.52
2024-02-29T08:59:49.305Z,9.57
2024-02-29T09:00:51.213Z,9.55
2024-02-29T09:01:54.082Z,9.52
2024-02-29T09:02:56.107Z,9.58
2024-02-29T09:03:58.257Z,9.62
2024-02-29T09:05:00.123Z,9.66
2024-02-29T09:06:01.987Z,9.78
2024-02-29T09:07:04.493Z,9.89
2024-02-29T09:08:06.349Z,9.94
2024-02-29T09:09:08.133Z,9.98
2024-02-29T09:10:10.957Z,10.04
2024-02-29T09:11:12.846Z,10.14
2024-02-29T09:12:16.694Z,10.24
2024-02-29T09:13:29.737Z,10.31
2024-02-29T09:14:39.900Z,10.41
2024-02-29T09:15:43.260Z,10.48
2024-02-29T09:16:45.069Z,10.58
2024-02-29T09:17:46.804Z,10.64
2024-02-29T09:18:49.355Z,10.72
2024-02-29T09:19:51.188Z,10.80
2024-02-29T09:20:53.060Z,10.85
2024-02-29T09:21:54.912Z,10.80
2024-02-29T09:22:57.216Z,10.81
2024-02-29T09:23:59.118Z,10.88
2024-02-29T09:25:01.116Z,10.95
2024-02-29T09:26:04.192Z,11.06
2024-02-29T09:27:06.202Z,11.13
2024-02-29T09:28:08.081Z,11.20
2024-02-29T09:29:09.906Z,11.23
2024-02-29T09:30:12.224Z,11.18
2024-02-29T09:31:14.157Z,11.19
2024-02-29T09:32:16.105Z,11.27
2024-02-29T09:33:18.358Z,11.37
2024-02-29T09:34:20.367Z,11.44
2024-02-29T09:35:22.919Z,11.51
2024-02-29T09:36:26.102Z,11.57
2024-02-29T09:37:27.918Z,11.63
2024-02-29T09:38:29.795Z,11.67
2024-02-29T09:39:31.641Z,11.69
2024-02-29T09:40:42.006Z,11.77
2024-02-29T09:42:08.465Z,11.89
2024-02-29T09:43:12.766Z,11.96
2024-02-29T09:44:15.236Z,12.00
2024-02-29T09:45:19.466Z,12.05
2024-02-29T09:46:22.847Z,12.12
2024-02-29T09:47:25.436Z,12.23
2024-02-29T09:48:27.340Z,12.29
2024-02-29T09:49:29.891Z,12.27
2024-02-29T09:50:31.637Z,12.23
2024-02-29T09:51:33.772Z,12.29
2024-02-29T09:52:36.331Z,12.35
2024-02-29T09:53:39.479Z,12.40
2024-02-29T09:54:42.002Z,12.47
2024-02-29T09:55:44.463Z,12.54
2024-02-29T09:56:49.348Z,12.59
2024-02-29T09:57:51.103Z,12.68
2024-02-29T09:58:52.910Z,12.76
2024-02-29T09:59:55.154Z,12.85
2024-02-29T10:00:57.528Z,12.95
2024-02-29T10:02:01.244Z,13.04
2024-02-29T10:03:04.732Z,13.10
2024-02-29T10:04:08.421Z,13.15
2024-02-29T10:05:13.417Z,13.24
2024-02-29T10:06:15.442Z,13.25
2024-02-29T10:07:17.260Z,13.28
2024-02-29T10:08:19.570Z,13.36
2024-02-29T10:09:22.449Z,13.47
2024-02-29T10:10:24.587Z,13.56
2024-02-29T10:11:29.926Z,13.64
2024-02-29T10:12:32.160Z,13.71
2024-02-29T10:13:38.348Z,13.78
2024-02-29T10:14:40.145Z,13.88
2024-02-29T10:15:42.657Z,13.89
2024-02-29T10:16:44.432Z,13.92
2024-02-29T10:17:46.771Z,14.07
2024-02-29T10:18:49.704Z,14.12
2024-02-29T10:19:53.655Z,14.17
2024-02-29T10:20:55.485Z,14.21
2024-02-29T10:21:57.824Z,14.29
2024-02-29T10:23:00.532Z,14.35
2024-02-29T10:24:02.419Z,14.43
2024-02-29T10:25:04.334Z,14.49
2024-02-29T10:26:06.309Z,14.52
2024-02-29T10:27:08.153Z,14.60
2024-02-29T10:28:13.870Z,14.74
2024-02-29T10:29:18.383Z,14.87
2024-02-29T10:30:20.413Z,15.04
2024-02-29T10:31:22.386Z,15.11
2024-02-29T10:32:24.260Z,15.18
2024-02-29T10:33:27.165Z,15.17
2024-02-29T10:34:29.158Z,15.27
2024-02-29T10:35:31.869Z,15.37
2024-02-29T10:36:34.168Z,15.41
2024-02-29T10:37:35.950Z,15.49
2024-02-29T10:38:38.740Z,15.56
2024-02-29T10:39:41.943Z,15.63
2024-02-29T10:40:44.424Z,15.65
2024-02-29T10:41:50.573Z,15.67
2024-02-29T10:42:53.372Z,15.75
2024-02-29T10:43:56.097Z,15.79
2024-02-29T10:44:58.934Z,15.80
2024-02-29T10:46:01.133Z,15.88
2024-02-29T10:47:06.805Z,15.92
2024-02-29T10:48:16.245Z,15.88
2024-02-29T10:49:36.449Z,15.92
2024-02-29T10:50:57.063Z,16.04
2024-02-29T10:52:15.346Z,16.16
2024-02-29T10:53:26.566Z,16.25
2024-02-29T10:54:34.144Z,16.31
2024-02-29T10:55:40.626Z,16.31
2024-02-29T10:56:45.960Z,16.37
2024-02-29T10:57:58.359Z,16.36
2024-02-29T10:59:08.805Z,16.26
2024-02-29T11:00:13.132Z,16.22
2024-02-29T11:01:15.134Z,16.24
2024-02-29T11:02:17.329Z,16.39
2024-02-29T11:03:20.078Z,16.56
2024-02-29T11:04:22.018Z,16.57
2024-02-29T11:05:24.514Z,16.72
2024-02-29T11:06:27.872Z,16.88
2024-02-29T11:07:30.140Z,17.07
2024-02-29T11:08:32.977Z,17.25
2024-02-29T11:09:35.145Z,17.35
2024-02-29T11:10:37.309Z,17.31
2024-02-29T11:11:39.895Z,17.40
2024-02-29T11:12:43.943Z,17.55
2024-02-29T11:13:45.779Z,17.68
2024-02-29T11:14:50.919Z,17.71
2024-02-29T11:15:56.281Z,17.75
2024-02-29T11:16:58.059Z,17.79
2024-02-29T11:18:00.722Z,17.83
2024-02-29T11:19:05.552Z,17.87
2024-02-29T11:20:10.927Z,17.88
2024-02-29T11:21:13.847Z,17.91
2024-02-29T11:22:16.853Z,17.97
2024-02-29T11:23:21.267Z,18.05
2024-02-29T11:24:23.974Z,18.21
2024-02-29T11:25:30.338Z,18.36
2024-02-29T11:26:34.280Z,18.39
2024-02-29T11:27:36.044Z,18.28
2024-02-29T11:28:38.618Z,18.29
2024-02-29T11:29:43.716Z,18.43
2024-02-29T11:30:49.978Z,18.44
2024-02-29T11:31:55.147Z,18.52
2024-02-29T11:33:07.811Z,18.58
2024-02-29T11:34:09.634Z,18.69
2024-02-29T11:35:12.785Z,18.76
2024-02-29T11:36:14.892Z,18.71
2024-02-29T11:37:17.448Z,18.64
2024-02-29T11:38:28.876Z,18.73
2024-02-29T11:39:34.642Z,18.76
2024-02-29T11:40:36.966Z,18.76
2024-02-29T11:41:39.635Z,18.80
2024-02-29T11:42:41.504Z,18.86
2024-02-29T11:43:44.732Z,18.79
2024-02-29T11:44:50.432Z,18.84
2024-02-29T11:45:52.173Z,18.89
2024-02-29T11:46:54.055Z,18.93
2024-02-29T11:47:55.908Z,18.77
2024-02-29T11:48:58.064Z,18.64
2024-02-29T11:50:01.299Z,18.74
2024-02-29T11:51:04.683Z,18.92
2024-02-29T11:52:06.622Z,19.03
2024-02-29T11:53:08.498Z,18.92
2024-02-29T11:54:11.233Z,19.00
2024-02-29T11:55:13.567Z,19.06
2024-02-29T11:56:16.929Z,18.92
2024-02-29T11:57:20.101Z,18.88
2024-02-29T11:58:22.305Z,18.93
2024-02-29T11:59:27.785Z,19.00
2024-02-29T12:00:29.677Z,19.01
2024-02-29T12:01:31.558Z,19.01
2024-02-29T12:02:33.480Z,19.01
2024-02-29T12:03:36.403Z,19.06
2024-02-29T12:04:38.465Z,19.11
2024-02-29T12:05:40.391Z,19.14
2024-02-29T12:06:42.633Z,19.12
2024-02-29T12:07:44.518Z,19.13
2024-02-29T12:08:46.905Z,19.15
2024-02-29T12:09:48.812Z,19.32
2024-02-29T12:10:50.831Z,19.37
2024-02-29T12:11:52.834Z,19.42
2024-02-29T12:12:54.940Z,19.51
2024-02-29T12:13:57.747Z,19.58
2024-02-29T12:15:00.128Z,19.67
2024-02-29T12:16:02.216Z,19.81
2024-02-29T12:17:05.031Z,19.99
2024-02-29T12:18:08.645Z,20.15
2024-02-29T12:19:11.022Z,20.15
2024-02-29T12:20:18.560Z,20.24
2024-02-29T12:21:20.610Z,20.40
2024-02-29T12:22:22.718Z,20.43
2024-02-29T12:23:25.262Z,20.37
2024-02-29T12:24:27.869Z,20.39
2024-02-29T12:25:29.710Z,20.29
2024-02-29T12:26:31.744Z,20.29
2024-02-29T12:27:33.503Z,20.34
2024-02-29T12:28:36.524Z,20.37
2024-02-29T12:29:38.281Z,20.47
2024-02-29T12:30:40.473Z,20.61
2024-02-29T12:31:42.705Z,20.78
2024-02-29T12:32:44.773Z,20.73
2024-02-29T12:33:47.864Z,20.70
2024-02-29T12:34:49.700Z,20.69
2024-02-29T12:35:52.200Z,20.42
2024-02-29T12:36:56.320Z,20.42
2024-02-29T12:37:59.264Z,20.47
2024-02-29T12:39:02.202Z,20.46
2024-02-29T12:40:05.790Z,20.40
2024-02-29T12:41:08.047Z,20.36
2024-02-29T12:42:09.847Z,20.38
2024-02-29T12:43:16.532Z,20.43
2024-02-29T12:44:18.385Z,20.48
2024-02-29T12:45:20.125Z,20.50
2024-02-29T12:46:22.167Z,20.42
2024-02-29T12:47:24.185Z,20.49
2024-02-29T12:48:26.159Z,20.38
2024-02-29T12:49:28.210Z,20.28
2024-02-29T12:50:30.759Z,20.29
2024-02-29T12:51:32.492Z,20.28
2024-02-29T12:52:34.370Z,20.35
2024-02-29T12:53:36.677Z,20.33
2024-02-29T12:54:38.783Z,20.33
2024-02-29T12:55:40.699Z,20.40
2024-02-29T12:56:42.499Z,20.33
2024-02-29T12:57:44.544Z,20.38
2024-02-29T12:58:49.263Z,20.48
2024-02-29T12:59:51.001Z,20.55
2024-02-29T13:00:52.840Z,20.50
2024-02-29T13:01:55.014Z,20.42
2024-02-29T13:02:57.393Z,20.47
2024-02-29T13:03:59.247Z,20.53
2024-02-29T13:05:01.065Z,20.58
2024-02-29T13:06:02.877Z,20.56
2024-02-29T13:07:04.878Z,20.56
2024-02-29T13:08:08.780Z,20.57
2024-02-29T13:09:10.569Z,20.29
2024-02-29T13:10:12.820Z,20.29
2024-02-29T13:11:14.676Z,20.29
2024-02-29T13:12:16.444Z,20.42
2024-02-29T13:13:19.308Z,20.52
2024-02-29T13:14:21.263Z,20.54
2024-02-29T13:15:23.133Z,20.55
2024-02-29T13:16:24.915Z,20.53
2024-02-29T13:17:26.749Z,20.54
2024-02-29T13:18:28.627Z,20.39
2024-02-29T13:19:30.747Z,20.26
2024-02-29T13:20:32.571Z,20.27
2024-02-29T13:21:34.770Z,20.23
2024-02-29T13:22:36.561Z,20.17
2024-02-29T13:23:38.320Z,20.13
2024-02-29T13:24:40.146Z,20.11
2024-02-29T13:25:42.101Z,20.15
2024-02-29T13:26:44.122Z,20.16
2024-02-29T13:27:45.986Z,20.12
2024-02-29T13:28:48.239Z,20.13
2024-02-29T13:29:50.024Z,20.17
2024-02-29T13:30:51.907Z,20.29
2024-02-29T13:31:53.676Z,20.25
2024-02-29T13:32:55.466Z,20.16
2024-02-29T13:33:57.267Z,20.05
2024-02-29T13:34:59.097Z,19.94
2024-02-29T13:36:00.887Z,20.00
2024-02-29T13:37:02.798Z,19.93
2024-02-29T13:38:04.654Z,19.92
2024-02-29T13:39:10.653Z,19.89
2024-02-29T13:40:12.546Z,19.96
2024-02-29T13:41:15.271Z,20.01
2024-02-29T13:42:17.724Z,20.02
2024-02-29T13:43:19.498Z,19.98